Time;durP1;ratioP1;P1;durP2;ratioP2;P2;SDS_P1;SDS_P2;PMS_P1;PMS_P2;Temp;Humidity;BMP_temperature;BMP_pressure;BME280_temperature;BME280_humidity;BME280_pressure;Samples;Min_cycle;Max_cycle;Signal;HPM_P1;HPM_P2
2022/05/15 00:01:51;;;;;;;5.25;2.67;;;9.80;99.90;;;;;;5028207;28;20601;-48
2022/05/15 00:04:18;;;;;;;5.50;3.10;;;9.70;99.90;;;;;;5053162;28;20247;-46
2022/05/15 00:06:45;;;;;;;5.47;2.67;;;9.70;99.90;;;;;;5046259;28;20259;-48
2022/05/15 00:09:13;;;;;;;7.97;3.78;;;9.60;99.90;;;;;;5049053;28;20511;-44
2022/05/15 00:11:40;;;;;;;7.97;3.33;;;9.70;99.90;;;;;;5041878;28;20259;-48
2022/05/15 00:14:07;;;;;;;6.30;3.73;;;9.60;99.90;;;;;;5039793;28;20239;-45
2022/05/15 00:16:33;;;;;;;8.20;3.13;;;9.60;99.90;;;;;;5051665;28;20574;-48
2022/05/15 00:19:01;;;;;;;13.20;4.10;;;9.60;99.90;;;;;;5041798;28;20825;-41
2022/05/15 00:21:28;;;;;;;11.85;5.45;;;9.60;99.90;;;;;;5058669;28;20228;-44
2022/05/15 00:23:55;;;;;;;13.23;5.43;;;9.60;99.90;;;;;;5038019;28;20212;-46
2022/05/15 00:26:23;;;;;;;14.60;5.70;;;9.50;99.90;;;;;;5044356;28;20323;-43
2022/05/15 00:28:50;;;;;;;17.50;7.30;;;9.40;99.90;;;;;;5039764;28;20264;-49
2022/05/15 00:31:16;;;;;;;14.07;4.50;;;9.30;99.90;;;;;;5048430;28;20209;-49
2022/05/15 00:33:44;;;;;;;11.97;4.70;;;9.30;99.90;;;;;;5047290;28;20215;-49
2022/05/15 00:36:12;;;;;;;12.93;4.50;;;9.20;99.90;;;;;;5052637;28;20909;-45
2022/05/15 00:38:39;;;;;;;11.00;5.03;;;9.10;99.90;;;;;;5047115;28;20229;-48
2022/05/15 00:41:06;;;;;;;11.97;5.23;;;9.10;99.90;;;;;;5052101;28;20570;-45
2022/05/15 00:43:44;;;;;;;8.93;4.23;;;9.10;99.90;;;;;;5036931;28;20278;-49
2022/05/15 00:46:15;;;;;;;11.43;5.50;;;9.10;99.90;;;;;;5032549;28;20549;-43
2022/05/15 00:48:43;;;;;;;14.03;4.97;;;9.10;99.90;;;;;;5042673;28;20271;-46
2022/05/15 00:51:15;;;;;;;12.80;5.27;;;9.10;99.90;;;;;;5053050;28;20284;-44
2022/05/15 00:53:43;;;;;;;11.20;4.70;;;9.00;99.90;;;;;;5041187;28;20273;-46
2022/05/15 00:56:12;;;;;;;8.97;4.23;;;9.10;99.90;;;;;;5049237;28;20287;-46
2022/05/15 00:58:47;;;;;;;8.60;3.90;;;9.10;99.90;;;;;;5042784;28;20279;-47
2022/05/15 01:01:16;;;;;;;7.00;3.07;;;9.00;99.90;;;;;;5040091;28;20217;-45
2022/05/15 01:03:44;;;;;;;6.83;3.50;;;8.90;99.90;;;;;;5052292;28;20296;-45
2022/05/15 01:06:11;;;;;;;4.57;2.50;;;8.80;99.90;;;;;;5043011;28;20221;-41
2022/05/15 01:08:38;;;;;;;5.07;3.03;;;8.80;99.90;;;;;;5045260;28;20296;-48
2022/05/15 01:11:10;;;;;;;4.23;3.00;;;8.80;99.90;;;;;;5053094;28;20236;-44
2022/05/15 01:13:39;;;;;;;3.13;2.40;;;8.80;99.90;;;;;;5048958;28;20204;-49
2022/05/15 01:16:08;;;;;;;4.07;2.80;;;8.80;99.90;;;;;;5042676;28;20222;-46
2022/05/15 01:18:37;;;;;;;5.77;3.13;;;8.80;99.90;;;;;;5054485;28;20447;-45
2022/05/15 01:21:21;;;;;;;6.37;3.07;;;8.70;99.90;;;;;;5041204;28;20281;-45
2022/05/15 01:23:48;;;;;;;6.43;3.03;;;8.50;99.90;;;;;;5053858;28;20205;-46
2022/05/15 01:26:15;;;;;;;7.17;3.33;;;8.40;99.90;;;;;;5048102;28;20660;-46
2022/05/15 01:28:44;;;;;;;2.90;2.60;;;8.40;99.90;;;;;;5053117;28;20567;-46
2022/05/15 01:31:12;;;;;;;3.73;2.40;;;8.30;99.90;;;;;;5031210;28;20267;-46
2022/05/15 01:33:39;;;;;;;5.07;3.00;;;8.40;99.90;;;;;;5049616;28;20324;-44
2022/05/15 01:36:09;;;;;;;7.77;3.00;;;8.30;99.90;;;;;;5047095;28;20232;-45
2022/05/15 01:38:35;;;;;;;4.00;2.97;;;8.20;99.90;;;;;;5053644;28;20315;-46
2022/05/15 01:41:03;;;;;;;6.40;3.10;;;8.20;99.90;;;;;;5044970;28;20256;-45
2022/05/15 01:43:30;;;;;;;6.07;3.13;;;8.30;99.90;;;;;;5052003;28;20206;-46
2022/05/15 01:45:58;;;;;;;4.53;3.03;;;8.20;99.90;;;;;;5032076;28;20300;-45
2022/05/15 01:48:25;;;;;;;4.33;2.73;;;8.10;99.90;;;;;;5052485;28;20454;-46
2022/05/15 01:50:52;;;;;;;4.77;3.00;;;8.20;99.90;;;;;;5045865;28;20215;-45
2022/05/15 01:53:20;;;;;;;4.27;3.30;;;8.20;99.90;;;;;;5053471;28;20307;-45
2022/05/15 01:55:47;;;;;;;4.87;3.37;;;8.30;99.90;;;;;;5045427;28;20231;-46
2022/05/15 01:58:14;;;;;;;4.13;3.03;;;8.30;99.90;;;;;;5052112;28;20253;-45
2022/05/15 02:00:41;;;;;;;13.37;4.03;;;8.30;99.90;;;;;;5042784;28;20318;-46
2022/05/15 02:03:08;;;;;;;7.67;3.73;;;8.20;99.90;;;;;;5038913;28;20213;-45
2022/05/15 02:05:35;;;;;;;4.73;3.50;;;8.30;99.90;;;;;;5061185;28;20308;-45
2022/05/15 02:08:02;;;;;;;6.53;4.17;;;8.30;99.90;;;;;;5050604;28;20209;-46
2022/05/15 02:10:30;;;;;;;7.50;4.40;;;8.20;99.90;;;;;;5040197;28;20277;-46
2022/05/15 02:12:57;;;;;;;15.03;5.30;;;8.10;99.90;;;;;;5053765;28;20208;-45
2022/05/15 02:15:24;;;;;;;8.13;4.60;;;8.10;99.90;;;;;;5047029;28;20205;-45
2022/05/15 02:17:52;;;;;;;13.40;5.27;;;8.00;99.90;;;;;;5031036;28;20225;-45
2022/05/15 02:20:19;;;;;;;6.77;3.77;;;8.00;99.90;;;;;;5051233;28;20253;-45
2022/05/15 02:22:46;;;;;;;10.43;3.93;;;8.00;99.90;;;;;;5046406;28;20513;-47
2022/05/15 02:25:14;;;;;;;12.93;4.50;;;7.90;99.90;;;;;;5051303;28;20432;-48
2022/05/15 02:27:43;;;;;;;12.03;4.73;;;7.90;99.90;;;;;;5040522;28;20401;-41
2022/05/15 02:30:12;;;;;;;8.37;4.23;;;7.80;99.90;;;;;;5042130;28;20720;-43
2022/05/15 02:32:39;;;;;;;8.80;4.57;;;7.80;99.90;;;;;;5049705;28;20212;-42
2022/05/15 02:35:06;;;;;;;8.20;4.47;;;7.80;99.90;;;;;;5024248;28;20215;-46
2022/05/15 02:37:33;;;;;;;9.87;4.17;;;7.80;99.90;;;;;;5045912;28;20229;-44
2022/05/15 02:40:00;;;;;;;7.43;4.37;;;7.80;99.90;;;;;;5050126;28;20607;-48
2022/05/15 02:42:27;;;;;;;10.90;4.67;;;7.60;99.90;;;;;;5046900;28;20204;-44
2022/05/15 02:44:55;;;;;;;11.73;4.50;;;7.70;99.90;;;;;;5051586;28;20209;-47
2022/05/15 02:47:22;;;;;;;11.27;5.43;;;7.60;99.90;;;;;;5042503;28;20225;-46
2022/05/15 02:52:33;;;;;;;10.33;4.37;;;7.70;99.90;;;;;;5055770;28;20211;-44
2022/05/15 02:55:00;;;;;;;11.83;5.13;;;7.50;99.90;;;;;;5042982;28;20209;-48
2022/05/15 02:57:27;;;;;;;13.30;6.17;;;7.40;99.90;;;;;;5054063;28;20253;-44
2022/05/15 02:59:55;;;;;;;21.37;5.80;;;7.30;99.90;;;;;;5039365;28;20287;-48
2022/05/15 03:02:22;;;;;;;11.63;5.53;;;7.20;99.90;;;;;;5046275;28;20485;-44
2022/05/15 03:04:49;;;;;;;11.87;5.63;;;7.20;99.90;;;;;;5021421;28;20215;-42
2022/05/15 03:07:17;;;;;;;13.53;6.00;;;7.20;99.90;;;;;;5039346;28;20227;-48
2022/05/15 03:09:46;;;;;;;14.00;5.80;;;7.20;99.90;;;;;;5041808;28;20563;-45
2022/05/15 03:12:13;;;;;;;13.43;5.83;;;7.30;99.90;;;;;;5052003;28;20259;-47
2022/05/15 03:14:39;;;;;;;12.40;6.27;;;7.40;99.90;;;;;;5039792;28;20465;-45
2022/05/15 03:17:07;;;;;;;10.23;5.70;;;7.30;99.90;;;;;;5055243;28;20259;-46
2022/05/15 03:19:34;;;;;;;13.33;6.23;;;7.40;99.90;;;;;;5028914;28;20383;-46
2022/05/15 03:22:01;;;;;;;8.70;5.43;;;7.40;99.90;;;;;;5050219;28;20228;-44
2022/05/15 03:24:28;;;;;;;8.67;5.33;;;7.30;99.90;;;;;;5039631;28;20455;-45
2022/05/15 03:26:55;;;;;;;9.83;5.43;;;7.40;99.90;;;;;;5056287;28;20621;-46
2022/05/15 03:29:22;;;;;;;11.57;5.73;;;7.40;99.90;;;;;;5039525;28;20277;-45
2022/05/15 03:31:48;;;;;;;13.97;5.97;;;7.50;99.90;;;;;;5054699;28;20208;-45
2022/05/15 03:34:18;;;;;;;15.70;6.07;;;7.40;99.90;;;;;;5040457;28;20287;-45
2022/05/15 03:36:47;;;;;;;10.43;5.87;;;7.40;99.90;;;;;;5054581;28;20663;-46
2022/05/15 03:39:15;;;;;;;18.67;6.20;;;7.40;99.90;;;;;;5055725;28;20223;-45
2022/05/15 03:41:42;;;;;;;7.03;5.20;;;7.30;99.90;;;;;;5048717;28;20280;-46
2022/05/15 03:44:10;;;;;;;7.97;3.93;;;7.40;99.90;;;;;;5050658;28;20476;-45
2022/05/15 03:46:37;;;;;;;14.03;3.87;;;7.40;99.90;;;;;;5049722;28;20568;-45
2022/05/15 03:49:04;;;;;;;5.80;3.93;;;7.20;99.90;;;;;;5053991;28;20291;-45
2022/05/15 03:51:32;;;;;;;7.13;4.33;;;7.30;99.90;;;;;;5028447;28;20217;-46
2022/05/15 03:54:00;;;;;;;6.60;3.90;;;7.30;99.90;;;;;;5051908;28;20198;-45
2022/05/15 03:59:12;;;;;;;6.10;3.60;;;7.20;99.90;;;;;;5055130;28;20234;-48
2022/05/15 04:01:39;;;;;;;5.10;3.73;;;7.10;99.90;;;;;;5040274;28;20212;-45
2022/05/15 04:04:06;;;;;;;8.57;3.90;;;7.20;99.90;;;;;;5056200;28;20279;-48
2022/05/15 04:06:34;;;;;;;10.43;4.57;;;7.30;99.90;;;;;;5021850;28;20224;-48
2022/05/15 04:09:02;;;;;;;6.23;3.93;;;7.30;99.90;;;;;;5054366;28;20472;-45
2022/05/15 04:11:29;;;;;;;8.43;4.80;;;7.20;99.90;;;;;;5042722;28;20212;-48
2022/05/15 04:13:56;;;;;;;7.70;4.50;;;7.30;99.90;;;;;;5051465;28;20258;-41
2022/05/15 04:16:23;;;;;;;7.67;4.23;;;7.30;99.90;;;;;;5029741;28;20513;-48
2022/05/15 04:18:50;;;;;;;6.77;4.50;;;7.30;99.90;;;;;;5053433;28;20546;-45
2022/05/15 04:21:17;;;;;;;11.93;5.33;;;7.30;99.90;;;;;;5030068;28;20219;-45
2022/05/15 04:23:45;;;;;;;10.80;4.83;;;7.40;99.90;;;;;;5051539;28;20231;-45
2022/05/15 04:26:12;;;;;;;7.57;4.57;;;7.50;99.90;;;;;;5041552;28;20233;-46
2022/05/15 04:28:39;;;;;;;6.63;3.93;;;7.60;99.90;;;;;;5049346;28;20312;-45
2022/05/15 04:31:06;;;;;;;6.50;3.83;;;7.50;99.90;;;;;;5048074;28;20261;-45
2022/05/15 04:33:34;;;;;;;5.90;3.63;;;7.50;99.90;;;;;;5038670;28;20213;-45
2022/05/15 04:36:01;;;;;;;6.40;3.87;;;7.50;99.90;;;;;;5028209;28;20221;-46
2022/05/15 04:38:28;;;;;;;5.23;3.60;;;7.50;99.90;;;;;;5043392;28;20209;-45
2022/05/15 04:40:56;;;;;;;15.30;4.50;;;7.40;99.90;;;;;;5049654;28;20227;-45
2022/05/15 04:43:23;;;;;;;16.30;4.70;;;7.30;99.90;;;;;;5053432;28;20276;-45
2022/05/15 04:45:50;;;;;;;12.70;4.83;;;7.30;99.90;;;;;;5052630;28;20230;-46
2022/05/15 04:48:17;;;;;;;10.27;4.27;;;7.30;99.90;;;;;;5049665;28;20238;-45
2022/05/15 04:50:44;;;;;;;9.73;3.83;;;7.30;99.90;;;;;;5038848;28;20243;-46
2022/05/15 04:53:11;;;;;;;5.03;4.30;;;7.30;99.90;;;;;;5034283;28;20283;-46
2022/05/15 04:55:38;;;;;;;5.93;4.33;;;7.30;99.90;;;;;;5057089;28;20226;-45
2022/05/15 04:58:06;;;;;;;4.50;3.77;;;7.30;99.90;;;;;;5049587;28;20200;-46
2022/05/15 05:00:33;;;;;;;20.63;4.63;;;7.40;99.90;;;;;;5043080;28;20234;-48
2022/05/15 05:03:00;;;;;;;24.20;4.83;;;7.40;99.90;;;;;;5046887;28;20209;-44
2022/05/15 05:05:27;;;;;;;36.03;4.63;;;7.50;99.90;;;;;;5055911;28;20481;-45
2022/05/15 05:07:53;;;;;;;5.47;4.10;;;7.40;99.90;;;;;;5033731;28;20214;-45
2022/05/15 05:10:20;;;;;;;5.63;4.23;;;7.60;99.90;;;;;;5057922;28;20230;-46
2022/05/15 05:12:47;;;;;;;19.27;5.07;;;7.70;99.90;;;;;;5042896;28;20204;-46
2022/05/15 05:15:15;;;;;;;9.10;4.17;;;7.80;99.90;;;;;;5055879;28;20213;-46
2022/05/15 05:17:43;;;;;;;8.90;4.00;;;7.90;99.90;;;;;;5047903;28;20256;-45
2022/05/15 05:20:11;;;;;;;9.50;3.87;;;8.10;99.90;;;;;;5055466;28;20228;-45
2022/05/15 05:22:39;;;;;;;5.00;3.97;;;8.10;99.90;;;;;;5036414;28;20209;-45
2022/05/15 05:25:07;;;;;;;6.60;3.93;;;8.30;99.90;;;;;;5055391;28;20198;-45
2022/05/15 05:27:34;;;;;;;9.50;4.37;;;8.40;99.90;;;;;;5050506;28;20303;-45
2022/05/15 05:30:01;;;;;;;6.33;4.27;;;8.40;99.90;;;;;;5051028;28;20285;-46
2022/05/15 05:32:29;;;;;;;9.20;4.40;;;8.50;99.90;;;;;;5054841;28;20285;-45
2022/05/15 05:34:56;;;;;;;8.07;4.60;;;8.60;99.90;;;;;;5045885;28;20635;-46
2022/05/15 05:37:23;;;;;;;6.07;4.20;;;8.80;99.90;;;;;;5048666;28;20236;-46
2022/05/15 05:39:50;;;;;;;6.40;4.13;;;8.90;99.90;;;;;;5041865;28;20216;-46
2022/05/15 05:42:17;;;;;;;6.60;4.23;;;9.00;99.90;;;;;;5044427;28;20209;-45
2022/05/15 05:44:44;;;;;;;11.53;4.87;;;9.10;99.90;;;;;;5028450;28;20210;-46
2022/05/15 05:47:11;;;;;;;11.17;4.77;;;9.10;99.90;;;;;;5054354;28;20225;-46
2022/05/15 05:49:39;;;;;;;6.17;5.10;;;9.30;99.90;;;;;;5029512;28;20524;-45
2022/05/15 05:52:06;;;;;;;6.07;4.33;;;9.40;99.90;;;;;;5052161;28;20492;-47
2022/05/15 05:54:33;;;;;;;7.33;4.90;;;9.60;99.90;;;;;;5033106;28;20209;-45
2022/05/15 05:57:00;;;;;;;9.40;5.30;;;9.80;99.90;;;;;;5041203;28;20247;-46
2022/05/15 05:59:27;;;;;;;9.03;4.83;;;10.00;99.90;;;;;;5047265;28;20217;-46
2022/05/15 06:01:54;;;;;;;6.97;4.83;;;10.10;99.90;;;;;;5032103;28;20212;-46
2022/05/15 06:07:07;;;;;;;10.07;5.57;;;10.20;99.90;;;;;;5046475;28;22755;-46
2022/05/15 06:09:36;;;;;;;13.93;4.97;;;10.40;99.90;;;;;;5030006;28;20207;-47
2022/05/15 06:12:03;;;;;;;12.65;5.40;;;10.50;99.90;;;;;;5052679;28;20232;-46
2022/05/15 06:14:30;;;;;;;8.75;5.10;;;10.60;99.90;;;;;;5050873;28;20553;-46
2022/05/15 06:16:57;;;;;;;7.25;5.00;;;10.70;99.90;;;;;;5042697;28;20248;-48
2022/05/15 06:19:24;;;;;;;12.65;4.72;;;10.80;99.90;;;;;;5052360;28;20225;-47
2022/05/15 06:21:51;;;;;;;8.88;4.68;;;10.90;99.90;;;;;;5048937;28;20508;-42
2022/05/15 06:24:19;;;;;;;12.20;4.60;;;11.10;99.90;;;;;;5039993;28;20307;-45
2022/05/15 06:26:46;;;;;;;9.63;4.93;;;11.20;99.90;;;;;;5032909;28;20230;-46
2022/05/15 06:29:13;;;;;;;13.30;5.68;;;11.40;99.90;;;;;;5045043;28;20442;-49
2022/05/15 06:31:40;;;;;;;14.07;5.30;;;11.60;99.90;;;;;;5042932;28;20309;-45
2022/05/15 06:34:07;;;;;;;13.00;5.00;;;11.60;99.90;;;;;;5049610;28;20354;-49
2022/05/15 06:36:33;;;;;;;16.35;5.93;;;11.80;99.90;;;;;;5037141;28;20227;-46
2022/05/15 06:39:00;;;;;;;13.60;5.80;;;11.80;99.90;;;;;;5028344;28;20211;-46
2022/05/15 06:41:28;;;;;;;16.48;6.68;;;11.90;99.90;;;;;;5029541;28;20225;-45
2022/05/15 06:43:55;;;;;;;18.40;7.80;;;12.00;99.90;;;;;;5039526;28;20204;-50
2022/05/15 06:46:22;;;;;;;15.90;7.03;;;12.10;99.90;;;;;;5035154;28;20244;-47
2022/05/15 06:48:49;;;;;;;19.75;6.55;;;12.20;99.90;;;;;;5040032;28;20209;-46
2022/05/15 06:51:16;;;;;;;12.77;5.75;;;12.30;99.90;;;;;;5039456;28;20368;-46
2022/05/15 06:53:43;;;;;;;17.95;7.45;;;12.20;99.90;;;;;;5033094;28;20269;-47
2022/05/15 06:58:56;;;;;;;15.30;6.82;;;12.40;99.90;;;;;;5045890;28;20313;-46
2022/05/15 07:01:23;;;;;;;16.92;6.72;;;12.50;99.90;;;;;;5044847;28;20423;-46
2022/05/15 07:03:51;;;;;;;20.58;6.90;;;12.60;99.90;;;;;;5036099;28;20209;-46
2022/05/15 07:06:17;;;;;;;15.98;6.13;;;12.70;99.90;;;;;;5044035;28;20228;-47
2022/05/15 07:08:44;;;;;;;13.70;6.25;;;12.80;99.90;;;;;;5047005;28;20403;-47
2022/05/15 07:11:12;;;;;;;20.33;6.25;;;12.90;99.90;;;;;;5042904;28;20189;-47
2022/05/15 07:13:39;;;;;;;15.60;5.60;;;12.90;99.90;;;;;;5035697;28;20280;-47
2022/05/15 07:16:08;;;;;;;17.38;5.28;;;13.00;99.90;;;;;;5042054;28;20563;-47
2022/05/15 07:18:36;;;;;;;14.73;6.35;;;13.00;99.90;;;;;;5049649;28;20200;-47
2022/05/15 07:21:03;;;;;;;13.02;5.20;;;12.90;99.90;;;;;;5052457;28;20240;-47
2022/05/15 07:23:30;;;;;;;19.02;5.13;;;12.90;99.90;;;;;;5050779;28;20208;-46
2022/05/15 07:25:57;;;;;;;18.00;5.28;;;13.00;99.90;;;;;;5053290;28;20231;-48
2022/05/15 07:28:24;;;;;;;9.68;4.78;;;13.10;99.90;;;;;;5053181;28;20276;-47
2022/05/15 07:30:51;;;;;;;17.20;4.78;;;13.20;99.90;;;;;;5053719;28;20289;-48
2022/05/15 07:33:21;;;;;;;16.17;3.72;;;13.20;99.90;;;;;;5039634;28;20208;-46
2022/05/15 07:35:48;;;;;;;17.17;4.88;;;13.20;99.90;;;;;;5047161;28;20655;-47
2022/05/15 07:38:15;;;;;;;15.00;5.45;;;13.30;99.90;;;;;;5050365;28;20364;-47
2022/05/15 07:40:42;;;;;;;14.65;4.50;;;13.30;99.90;;;;;;5055965;28;20250;-47
2022/05/15 07:43:11;;;;;;;11.63;4.20;;;13.50;99.90;;;;;;5045850;28;20208;-47
2022/05/15 07:45:38;;;;;;;16.48;4.15;;;13.50;99.90;;;;;;5042675;28;20414;-47
2022/05/15 07:48:06;;;;;;;11.27;4.05;;;13.60;99.90;;;;;;5044277;28;20214;-46
2022/05/15 07:50:35;;;;;;;14.75;5.10;;;13.60;99.90;;;;;;5038350;28;20265;-47
2022/05/15 07:53:03;;;;;;;13.43;4.85;;;13.70;99.90;;;;;;5054740;28;20235;-46
2022/05/15 07:55:30;;;;;;;10.90;4.30;;;13.80;99.90;;;;;;5049205;28;20276;-49
2022/05/15 07:57:57;;;;;;;13.18;4.40;;;13.80;99.90;;;;;;5039766;28;20207;-48
2022/05/15 08:00:24;;;;;;;11.90;4.80;;;13.80;99.90;;;;;;5027965;28;20236;-48
2022/05/15 08:02:51;;;;;;;11.95;4.63;;;13.80;99.90;;;;;;5044980;28;20266;-47
2022/05/15 08:08:09;;;;;;;13.68;4.45;;;13.90;99.90;;;;;;5048171;28;20243;-47
2022/05/15 08:10:38;;;;;;;11.20;3.83;;;14.00;99.90;;;;;;5057094;28;20289;-47
2022/05/15 08:13:06;;;;;;;13.15;4.78;;;14.10;99.90;;;;;;5031488;28;20209;-47
2022/05/15 08:15:34;;;;;;;15.13;4.43;;;14.20;99.90;;;;;;5031694;28;21273;-46
2022/05/15 08:23:33;;;;;;;15.05;4.22;;;14.20;99.90;;;;;;5042169;28;20250;-47
2022/05/15 08:23:39;;;;;;;10.82;3.47;;;14.30;99.90;;;;;;5041193;28;20207;-47
2022/05/15 08:26:06;;;;;;;13.20;4.15;;;14.20;99.90;;;;;;5048098;28;20235;-47
2022/05/15 08:28:34;;;;;;;9.73;3.40;;;14.20;99.90;;;;;;5026507;28;20708;-47
2022/05/15 08:31:01;;;;;;;14.55;4.30;;;14.20;99.90;;;;;;5037852;28;20624;-47
2022/05/15 08:33:27;;;;;;;12.98;3.85;;;14.30;99.90;;;;;;5041526;28;20212;-46
2022/05/15 08:35:55;;;;;;;12.30;3.53;;;14.40;99.90;;;;;;5039758;28;20223;-47
2022/05/15 08:38:21;;;;;;;10.23;3.28;;;14.40;99.90;;;;;;5038991;28;20326;-46
2022/05/15 08:40:56;;;;;;;13.07;4.32;;;14.40;99.90;;;;;;5033188;28;20736;-47
2022/05/15 08:43:35;;;;;;;11.07;3.28;;;14.50;99.90;;;;;;5031782;28;20212;-46
2022/05/15 08:46:05;;;;;;;13.27;3.40;;;14.60;99.90;;;;;;5021848;28;20228;-47
2022/05/15 08:48:37;;;;;;;9.10;3.28;;;14.60;99.90;;;;;;5036036;28;20284;-50
2022/05/15 08:51:05;;;;;;;9.18;3.10;;;14.70;99.90;;;;;;5023951;28;20276;-45
2022/05/15 08:53:36;;;;;;;11.45;3.00;;;14.80;99.90;;;;;;5038891;28;20250;-49
2022/05/15 08:56:07;;;;;;;9.00;3.00;;;14.80;99.90;;;;;;5047272;28;20232;-47
2022/05/15 08:58:41;;;;;;;9.63;3.35;;;14.90;99.90;;;;;;5019481;28;20213;-47
2022/05/15 09:01:12;;;;;;;9.05;3.03;;;15.00;99.90;;;;;;5050417;28;20229;-48
2022/05/15 09:03:39;;;;;;;10.65;2.85;;;14.90;99.90;;;;;;5023398;28;20217;-47
2022/05/15 09:06:09;;;;;;;8.10;3.03;;;14.90;99.90;;;;;;5056885;28;20300;-47
2022/05/15 09:08:57;;;;;;;9.95;3.88;;;15.00;99.90;;;;;;5025224;28;20193;-47
2022/05/15 09:11:37;;;;;;;9.88;3.33;;;15.10;99.90;;;;;;5048273;28;20475;-47
2022/05/15 09:14:11;;;;;;;10.68;3.42;;;15.20;99.90;;;;;;5042836;28;20212;-47
2022/05/15 09:16:42;;;;;;;10.63;3.30;;;15.30;99.90;;;;;;5022562;28;20246;-46
2022/05/15 09:19:09;;;;;;;7.28;3.15;;;15.30;99.90;;;;;;5026378;28;20220;-47
2022/05/15 09:21:36;;;;;;;14.80;3.58;;;15.40;99.90;;;;;;5048131;28;20227;-47
2022/05/15 09:24:07;;;;;;;8.98;3.25;;;15.60;99.90;;;;;;5026827;28;20312;-47
2022/05/15 09:26:44;;;;;;;7.78;2.70;;;15.70;99.90;;;;;;5046630;28;20224;-47
2022/05/15 09:29:18;;;;;;;7.55;3.03;;;15.80;99.90;;;;;;5036682;28;20209;-47
2022/05/15 09:31:45;;;;;;;8.32;3.25;;;15.90;99.90;;;;;;5042917;28;22318;-47
2022/05/15 09:34:24;;;;;;;7.45;2.70;;;15.90;99.90;;;;;;5022438;28;20220;-47
2022/05/15 09:38:26;;;;;;;7.47;2.97;;;15.90;99.90;;;;;;5040195;28;20224;-47
2022/05/15 09:39:41;;;;;;;7.30;2.25;;;16.00;99.90;;;;;;5042317;28;20205;-47
2022/05/15 09:45:20;;;;;;;9.50;2.65;;;15.90;99.90;;;;;;5037900;28;20228;-46
2022/05/15 09:48:01;;;;;;;11.20;3.90;;;16.00;99.90;;;;;;5039584;28;20462;-47
2022/05/15 09:50:55;;;;;;;5.18;2.15;;;16.10;99.90;;;;;;5036915;28;20202;-49
2022/05/15 09:53:25;;;;;;;5.38;2.20;;;16.20;99.90;;;;;;5048262;28;20197;-47
2022/05/15 09:55:58;;;;;;;4.30;2.25;;;16.20;99.90;;;;;;5038227;28;20229;-47
2022/05/15 09:58:35;;;;;;;6.70;2.65;;;16.40;99.90;;;;;;5055286;28;20776;-47
2022/05/15 10:01:24;;;;;;;9.15;2.50;;;16.50;99.90;;;;;;5028077;28;20221;-50
2022/05/15 10:03:52;;;;;;;15.73;2.28;;;16.60;99.90;;;;;;5027175;28;20219;-49
2022/05/15 10:06:23;;;;;;;8.63;2.13;;;16.60;99.90;;;;;;5024335;28;20229;-49
2022/05/15 10:09:12;;;;;;;4.53;2.00;;;16.70;99.90;;;;;;5040088;28;20296;-46
2022/05/15 10:11:42;;;;;;;7.35;2.53;;;16.70;99.90;;;;;;5025287;28;20206;-49
2022/05/15 10:14:23;;;;;;;6.97;2.78;;;16.80;99.90;;;;;;5028692;28;20276;-46
2022/05/15 10:16:52;;;;;;;5.63;2.03;;;16.80;99.90;;;;;;5036080;28;20237;-46
2022/05/15 10:19:26;;;;;;;6.68;1.75;;;16.80;99.90;;;;;;5020926;28;21847;-46
2022/05/15 10:21:59;;;;;;;5.25;1.92;;;16.80;99.90;;;;;;5042947;28;20224;-47
2022/05/15 10:24:30;;;;;;;4.13;2.00;;;16.90;99.90;;;;;;5037638;28;20216;-47
2022/05/15 10:31:39;;;;;;;11.60;2.65;;;17.00;99.90;;;;;;5061458;27;20550;-60
2022/05/15 10:34:12;;;;;;;8.30;2.05;;;16.90;99.90;;;;;;5020942;28;20228;-60
2022/05/15 10:36:50;;;;;;;5.00;2.10;;;17.00;99.90;;;;;;5044267;28;20243;-60
2022/05/15 10:39:30;;;;;;;5.70;2.00;;;17.20;99.90;;;;;;5049836;28;20274;-61
2022/05/15 10:42:03;;;;;;;6.97;1.75;;;17.30;99.90;;;;;;5037872;28;20280;-61
2022/05/15 10:44:43;;;;;;;5.97;2.30;;;17.20;99.90;;;;;;5050165;28;20204;-60
2022/05/15 10:47:15;;;;;;;10.40;2.08;;;17.20;99.90;;;;;;5038974;28;20858;-61
2022/05/15 10:49:54;;;;;;;3.38;2.10;;;17.40;99.90;;;;;;5061812;28;20224;-61
2022/05/15 10:52:33;;;;;;;4.70;2.00;;;17.40;99.90;;;;;;5034882;28;20229;-61
2022/05/15 12:19:50;;;;;;;5.75;1.80;;;18.50;99.90;;;;;;5059799;27;20512;-43
2022/05/15 12:22:18;;;;;;;3.90;1.95;;;18.50;99.90;;;;;;5075732;28;20208;-43
2022/05/15 12:24:47;;;;;;;4.70;1.98;;;18.40;99.90;;;;;;5048866;28;20207;-43
2022/05/15 12:29:49;;;;;;;4.43;1.88;;;18.50;99.90;;;;;;5038479;27;20420;-62
2022/05/15 12:32:21;;;;;;;6.55;1.90;;;18.50;99.90;;;;;;5050158;28;20202;-60
2022/05/15 12:34:51;;;;;;;6.53;1.80;;;18.50;99.90;;;;;;5023248;28;20410;-61
2022/05/15 12:37:21;;;;;;;4.05;1.48;;;18.50;99.90;;;;;;5029115;28;20229;-61
2022/05/15 12:39:51;;;;;;;4.10;1.80;;;18.60;99.90;;;;;;5018528;28;20235;-62
2022/05/15 12:42:23;;;;;;;3.50;1.88;;;18.50;99.90;;;;;;5038860;28;20204;-60
2022/05/15 12:45:08;;;;;;;3.40;1.50;;;18.50;99.90;;;;;;5028693;28;20689;-61
2022/05/15 12:47:36;;;;;;;6.47;2.90;;;18.50;99.90;;;;;;5032318;28;20231;-60
2022/05/15 12:50:14;;;;;;;2.97;1.65;;;18.60;99.90;;;;;;5020101;28;20225;-60
